Time;durP1;ratioP1;P1;durP2;ratioP2;P2;SDS_P1;SDS_P2;PMS_P1;PMS_P2;Temp;Humidity;BMP_temperature;BMP_pressure;BME280_temperature;BME280_humidity;BME280_pressure;Samples;Min_cycle;Max_cycle;Signal;HPM_P1;HPM_P2
2021/06/07 00:01:30;;;;;;;40.92;33.85;;;;;;;17.35;84.55;101019.97;4989381;28;20042;-78
2021/06/07 00:03:55;;;;;;;39.60;32.33;;;;;;;17.33;85.06;101032.47;4967376;28;20090;-78
2021/06/07 00:06:20;;;;;;;40.53;33.92;;;;;;;17.27;85.50;101031.69;4984572;28;20490;-78
2021/06/07 00:08:46;;;;;;;40.22;33.05;;;;;;;17.24;85.64;101030.91;4972366;28;20034;-78
2021/06/07 00:11:12;;;;;;;36.97;31.83;;;;;;;17.24;85.35;101030.91;4988119;28;20035;-78
2021/06/07 00:13:40;;;;;;;42.78;32.70;;;;;;;17.21;85.21;101029.22;4970966;28;20069;-78
2021/06/07 00:16:05;;;;;;;35.83;30.02;;;;;;;17.22;85.15;101030.94;4990835;28;20081;-78
2021/06/07 00:18:31;;;;;;;41.45;33.75;;;;;;;17.19;85.33;101032.81;4988833;28;20039;-79
2021/06/07 00:21:22;;;;;;;45.13;35.10;;;;;;;17.08;86.36;101035.72;4990863;28;20030;-78
2021/06/07 00:23:48;;;;;;;44.55;35.63;;;;;;;17.04;86.47;101036.75;4953276;28;20491;-78
2021/06/07 00:26:14;;;;;;;37.78;32.05;;;;;;;17.04;86.54;101036.75;4968025;28;20039;-78
2021/06/07 00:28:40;;;;;;;40.33;32.83;;;;;;;17.10;85.74;101033.91;4988942;28;20049;-79
2021/06/07 00:31:07;;;;;;;42.80;34.47;;;;;;;17.12;85.99;101036.56;4988666;28;20093;-78
2021/06/07 00:33:34;;;;;;;55.95;40.75;;;;;;;17.13;85.93;101038.28;4986835;28;20039;-78
2021/06/07 00:36:00;;;;;;;43.83;34.65;;;;;;;17.14;86.28;101040.06;4988912;28;20038;-78
2021/06/07 00:38:26;;;;;;;42.22;34.58;;;;;;;17.20;85.63;101040.78;4988966;28;20073;-78
2021/06/07 00:40:52;;;;;;;46.88;36.22;;;;;;;17.28;85.48;101044.09;4985885;28;20042;-79
2021/06/07 00:43:18;;;;;;;39.25;33.25;;;;;;;17.39;84.74;101046.50;4969710;28;20035;-78
2021/06/07 00:45:44;;;;;;;49.65;38.17;;;;;;;17.44;84.71;101046.38;4988452;28;20057;-78
2021/06/07 00:48:10;;;;;;;41.35;33.28;;;;;;;17.46;84.53;101045.44;4982112;28;20086;-78
2021/06/07 00:50:42;;;;;;;42.50;33.30;;;;;;;17.45;84.92;101043.69;4984859;28;20458;-77
2021/06/07 00:53:11;;;;;;;40.90;32.57;;;;;;;17.46;84.87;101045.44;4965926;28;20062;-78
2021/06/07 00:55:39;;;;;;;43.85;35.28;;;;;;;17.49;84.74;101047.16;4968888;28;20092;-77
2021/06/07 00:58:07;;;;;;;42.22;32.13;;;;;;;17.58;84.33;101040.66;4987964;28;20073;-77
2021/06/07 01:00:34;;;;;;;39.92;33.13;;;;;;;17.56;84.55;101043.41;4938953;28;20050;-78
2021/06/07 01:03:00;;;;;;;38.30;30.98;;;;;;;17.62;84.46;101045.03;4968614;28;20042;-77
2021/06/07 01:05:27;;;;;;;41.20;32.65;;;;;;;17.57;84.81;101044.28;4988041;28;20045;-78
2021/06/07 01:07:53;;;;;;;43.20;35.35;;;;;;;17.61;84.79;101041.50;4987246;28;20034;-78
2021/06/07 01:10:20;;;;;;;41.63;31.98;;;;;;;17.71;84.67;101044.75;4968277;28;20090;-77
2021/06/07 01:12:45;;;;;;;38.67;32.78;;;;;;;17.70;84.74;101045.69;4987678;28;20030;-78
2021/06/07 01:15:12;;;;;;;40.85;32.47;;;;;;;17.69;84.87;101044.81;4987082;28;20031;-78
2021/06/07 01:17:37;;;;;;;40.35;33.83;;;;;;;17.70;85.27;101041.22;4967913;28;20035;-77
2021/06/07 01:20:06;;;;;;;42.85;31.42;;;;;;;17.72;85.14;101050.06;4970093;28;20494;-78
2021/06/07 01:22:32;;;;;;;40.08;32.47;;;;;;;17.74;85.14;101042.91;4970594;28;20030;-78
2021/06/07 01:24:58;;;;;;;36.75;31.58;;;;;;;17.81;85.08;101046.28;4985537;28;20537;-78
2021/06/07 01:27:23;;;;;;;39.38;32.30;;;;;;;17.83;85.02;101046.25;4988007;28;20113;-78
2021/06/07 01:29:49;;;;;;;45.40;35.20;;;;;;;17.81;85.06;101043.63;4988132;28;20048;-78
2021/06/07 01:32:14;;;;;;;43.05;32.63;;;;;;;17.85;85.27;101047.09;4986513;28;20085;-78
2021/06/07 01:34:40;;;;;;;44.40;35.13;;;;;;;17.84;85.41;101045.31;4987601;28;20100;-77
2021/06/07 01:37:06;;;;;;;37.67;32.03;;;;;;;17.86;84.88;101049.72;4988317;28;20058;-77
2021/06/07 01:39:32;;;;;;;40.20;32.05;;;;;;;17.85;85.03;101047.97;4969096;28;20505;-77
2021/06/07 01:41:57;;;;;;;36.45;31.70;;;;;;;17.83;85.18;101047.13;4988305;28;20117;-77
2021/06/07 01:44:22;;;;;;;40.08;34.38;;;;;;;17.84;84.78;101042.66;4956088;28;20114;-78
2021/06/07 01:46:48;;;;;;;38.45;33.58;;;;;;;17.87;84.63;101042.59;4966252;28;20470;-77
2021/06/07 01:49:14;;;;;;;40.15;32.20;;;;;;;17.82;84.56;101045.38;4987639;28;20038;-78
2021/06/07 01:51:40;;;;;;;40.67;32.20;;;;;;;17.83;84.43;101041.78;4986759;28;20026;-78
2021/06/07 01:54:05;;;;;;;36.70;31.52;;;;;;;17.80;84.80;101044.56;4966171;28;20066;-78
2021/06/07 01:56:31;;;;;;;39.67;33.50;;;;;;;17.75;85.03;101049.09;4988794;28;20030;-78
2021/06/07 01:58:56;;;;;;;40.58;34.25;;;;;;;17.70;85.14;101040.34;4957641;28;20490;-78
2021/06/07 02:01:22;;;;;;;38.70;31.75;;;;;;;17.64;85.15;101040.53;4970504;28;20031;-77
2021/06/07 02:03:49;;;;;;;41.22;34.75;;;;;;;17.58;85.19;101048.69;4988994;28;20116;-78
2021/06/07 02:06:19;;;;;;;39.63;33.22;;;;;;;17.52;85.21;101047.94;4989606;28;20034;-77
2021/06/07 02:08:45;;;;;;;38.75;32.85;;;;;;;17.46;85.48;101045.44;4985041;28;20045;-77
2021/06/07 02:11:31;;;;;;;38.17;32.97;;;;;;;17.41;85.65;101050.00;4971043;28;20050;-78
2021/06/07 02:14:03;;;;;;;38.85;31.65;;;;;;;17.45;86.11;101045.50;4988675;28;20100;-77
2021/06/07 02:16:31;;;;;;;39.33;35.08;;;;;;;17.39;85.86;101049.16;4985084;28;20084;-78
2021/06/07 02:18:57;;;;;;;38.58;33.28;;;;;;;17.35;85.85;101055.50;4987394;28;20035;-78
2021/06/07 02:21:25;;;;;;;42.75;33.83;;;;;;;17.38;85.74;101055.44;4964895;28;20073;-77
2021/06/07 02:23:51;;;;;;;39.78;34.30;;;;;;;17.29;86.44;101055.66;4967757;28;20041;-77
2021/06/07 02:26:18;;;;;;;39.65;33.75;;;;;;;17.20;86.23;101055.91;4947668;29;20035;-77
2021/06/07 02:29:03;;;;;;;40.30;33.30;;;;;;;17.13;86.69;101048.97;4980693;28;20042;-78
2021/06/07 02:31:29;;;;;;;42.45;35.17;;;;;;;17.11;86.70;101051.69;4957685;28;20046;-78
2021/06/07 02:33:56;;;;;;;40.28;33.13;;;;;;;17.08;87.02;101057.06;4969790;28;20065;-78
2021/06/07 02:36:26;;;;;;;36.72;31.77;;;;;;;17.04;86.84;101056.28;4966756;28;20035;-78
2021/06/07 02:38:52;;;;;;;40.47;32.05;;;;;;;16.98;87.31;101052.91;4970844;28;20034;-77
2021/06/07 02:41:19;;;;;;;38.30;31.38;;;;;;;16.95;87.33;101052.94;4988723;28;20046;-77
2021/06/07 02:43:45;;;;;;;37.92;32.80;;;;;;;16.94;87.52;101056.53;4982143;28;20125;-77
2021/06/07 02:46:10;;;;;;;40.15;33.90;;;;;;;16.91;88.05;101068.16;4969970;28;20072;-77
2021/06/07 02:48:36;;;;;;;42.63;36.35;;;;;;;16.89;87.95;101066.44;4988404;28;20070;-77
2021/06/07 02:51:02;;;;;;;36.42;31.17;;;;;;;16.91;87.21;101070.81;4965046;28;20038;-77
2021/06/07 02:53:28;;;;;;;39.88;33.25;;;;;;;16.90;87.13;101069.09;4969195;28;20521;-77
2021/06/07 02:55:54;;;;;;;38.47;33.05;;;;;;;16.85;87.46;101062.97;4949239;28;20039;-78
2021/06/07 02:58:21;;;;;;;42.38;33.67;;;;;;;16.80;87.44;101063.09;4985705;28;20042;-77
2021/06/07 03:00:56;;;;;;;41.60;33.78;;;;;;;16.78;87.59;101066.69;4969763;28;20236;-78
2021/06/07 03:03:22;;;;;;;43.63;34.92;;;;;;;16.78;87.55;101064.03;4983282;28;20026;-77
2021/06/07 03:05:51;;;;;;;46.85;37.15;;;;;;;16.74;87.73;101064.97;4986446;28;20058;-77
2021/06/07 03:08:23;;;;;;;38.88;32.55;;;;;;;16.73;87.77;101064.09;4988190;28;20042;-77
2021/06/07 03:10:52;;;;;;;42.50;34.25;;;;;;;16.70;88.08;101060.63;4955965;28;20113;-77
2021/06/07 03:13:20;;;;;;;43.05;35.25;;;;;;;16.70;88.32;101066.84;4985160;28;20491;-78
2021/06/07 03:15:48;;;;;;;42.20;33.30;;;;;;;16.74;88.01;101070.28;4986510;28;20092;-77
2021/06/07 03:18:14;;;;;;;46.15;36.88;;;;;;;16.70;88.08;101069.50;4987778;28;20042;-77
2021/06/07 03:20:39;;;;;;;41.00;33.83;;;;;;;16.72;88.39;101069.47;4950211;28;20664;-78
2021/06/07 03:23:09;;;;;;;40.30;35.22;;;;;;;16.74;88.21;101070.28;4984061;28;20058;-77
2021/06/07 03:25:35;;;;;;;39.75;33.15;;;;;;;16.71;88.06;101070.38;4985731;28;20450;-77
2021/06/07 03:28:00;;;;;;;44.35;35.25;;;;;;;16.72;88.21;101074.81;4970161;28;20038;-78
2021/06/07 03:30:26;;;;;;;40.38;34.75;;;;;;;16.77;87.96;101080.91;4988376;28;20406;-78
2021/06/07 03:32:52;;;;;;;48.58;38.65;;;;;;;16.75;88.04;101080.06;4986296;28;20453;-78
2021/06/07 03:35:19;;;;;;;36.33;32.10;;;;;;;16.77;87.58;101081.81;4969474;28;20125;-77
2021/06/07 03:37:46;;;;;;;43.63;34.53;;;;;;;16.80;87.64;101078.22;4965417;28;20035;-77
2021/06/07 03:40:16;;;;;;;48.90;38.38;;;;;;;16.83;87.33;101079.00;4983050;28;20042;-78
2021/06/07 03:42:41;;;;;;;49.10;39.83;;;;;;;16.86;87.23;101084.25;4983207;28;20494;-78
2021/06/07 03:45:09;;;;;;;44.05;33.83;;;;;;;16.90;87.19;101087.75;4970792;28;20038;-78
2021/06/07 03:47:34;;;;;;;40.72;33.35;;;;;;;16.92;87.61;101093.88;4989395;28;20037;-77
2021/06/07 03:50:00;;;;;;;45.95;36.67;;;;;;;16.90;87.64;101090.41;4970395;28;20034;-77
2021/06/07 03:52:26;;;;;;;41.63;35.90;;;;;;;16.98;87.43;101100.91;4992797;28;20809;-79
2021/06/07 03:54:51;;;;;;;41.13;35.72;;;;;;;17.06;87.21;101099.78;4989890;28;20035;-77
2021/06/07 03:57:17;;;;;;;44.90;34.53;;;;;;;17.08;86.94;101100.63;4993405;28;20517;-79
2021/06/07 03:59:43;;;;;;;41.17;34.40;;;;;;;17.08;86.72;101095.31;4993365;28;20521;-78
2021/06/07 04:02:09;;;;;;;38.22;32.70;;;;;;;17.15;86.34;101096.00;4994754;28;20022;-78
2021/06/07 04:04:35;;;;;;;42.33;35.10;;;;;;;17.20;86.06;101093.25;4994427;28;20030;-78
2021/06/07 04:07:01;;;;;;;39.13;32.03;;;;;;;17.25;85.94;101099.34;4974912;28;20066;-78
2021/06/07 04:09:27;;;;;;;40.08;34.22;;;;;;;17.24;85.63;101093.13;4983826;28;20487;-79
2021/06/07 04:11:52;;;;;;;40.03;34.58;;;;;;;17.31;85.21;101100.06;4992705;28;20105;-78
2021/06/07 04:14:18;;;;;;;40.45;34.65;;;;;;;17.28;85.18;101096.59;4987647;28;20648;-78
2021/06/07 04:16:43;;;;;;;40.33;33.05;;;;;;;17.26;84.98;101098.41;4993091;28;20081;-78
2021/06/07 04:19:09;;;;;;;37.95;31.42;;;;;;;17.34;84.55;101107.09;4991403;28;20030;-77
2021/06/07 04:21:39;;;;;;;38.58;33.28;;;;;;;17.32;84.55;101108.97;4987196;28;20129;-77
2021/06/07 04:24:06;;;;;;;37.53;31.30;;;;;;;17.34;84.27;101104.44;4988319;28;20598;-78
2021/06/07 04:26:31;;;;;;;40.88;31.98;;;;;;;17.39;83.83;101107.88;4991903;28;20030;-77
2021/06/07 04:28:57;;;;;;;36.05;30.52;;;;;;;17.38;83.95;101108.78;4972020;28;20031;-77
2021/06/07 04:31:22;;;;;;;35.45;31.65;;;;;;;17.40;83.45;101108.78;4969948;28;20553;-77
2021/06/07 04:33:47;;;;;;;37.75;32.42;;;;;;;17.42;83.23;101110.47;4951263;28;20042;-77
2021/06/07 04:36:13;;;;;;;36.78;32.47;;;;;;;17.40;82.80;101109.63;4973300;28;20122;-77
2021/06/07 04:38:38;;;;;;;33.25;29.75;;;;;;;17.59;82.32;101115.38;4955992;28;20417;-78
2021/06/07 04:41:04;;;;;;;36.55;31.02;;;;;;;17.68;81.05;101122.25;4992858;28;20042;-78
2021/06/07 04:43:29;;;;;;;34.05;30.55;;;;;;;17.63;80.83;101118.81;4990071;28;20511;-77
2021/06/07 04:45:55;;;;;;;33.03;29.52;;;;;;;17.70;80.88;101110.63;4955139;28;20060;-77
2021/06/07 04:48:20;;;;;;;35.00;30.88;;;;;;;17.77;80.42;101113.16;4967876;28;20046;-77
2021/06/07 04:50:46;;;;;;;35.17;30.25;;;;;;;17.87;80.18;101104.00;4956360;28;20065;-77
2021/06/07 04:53:12;;;;;;;35.95;29.52;;;;;;;18.00;79.03;101115.22;4957911;28;20042;-77
2021/06/07 04:55:50;;;;;;;32.45;28.58;;;;;;;17.94;79.04;101110.91;4970248;28;20050;-78
2021/06/07 04:58:18;;;;;;;35.70;31.35;;;;;;;17.80;79.11;101116.63;4991878;28;20557;-78
2021/06/07 05:00:50;;;;;;;35.72;31.45;;;;;;;17.92;78.40;101110.97;4968560;28;20566;-78
2021/06/07 05:03:16;;;;;;;34.17;30.00;;;;;;;17.84;79.56;101106.75;4961956;28;20070;-78
2021/06/07 05:05:41;;;;;;;38.22;32.33;;;;;;;18.03;78.38;101113.34;4992149;28;20045;-78
2021/06/07 05:08:07;;;;;;;36.17;30.40;;;;;;;18.03;78.86;101113.34;4993323;28;20497;-78
2021/06/07 05:10:33;;;;;;;34.67;29.17;;;;;;;18.17;77.93;101115.63;4992193;28;20046;-78
2021/06/07 05:12:59;;;;;;;33.00;29.38;;;;;;;18.27;77.50;101106.44;4995983;28;20058;-78
2021/06/07 05:15:24;;;;;;;31.95;28.50;;;;;;;18.27;77.12;101109.09;4992175;28;20129;-78
2021/06/07 05:17:50;;;;;;;32.88;28.83;;;;;;;18.22;76.84;101110.16;4970994;28;20042;-78
2021/06/07 05:20:21;;;;;;;34.25;28.90;;;;;;;18.12;77.39;101112.19;4953161;28;20047;-78
2021/06/07 05:22:48;;;;;;;32.95;29.35;;;;;;;18.26;76.80;101115.38;4990592;28;20027;-78
2021/06/07 05:25:15;;;;;;;32.90;29.23;;;;;;;18.35;76.87;101115.09;4951540;28;20035;-78
2021/06/07 05:27:40;;;;;;;33.88;30.17;;;;;;;18.54;75.88;101125.25;4957843;28;20081;-78
2021/06/07 05:30:07;;;;;;;31.10;27.90;;;;;;;18.68;75.62;101123.03;4990123;28;20122;-78
2021/06/07 05:32:32;;;;;;;32.35;27.92;;;;;;;18.72;73.67;101118.47;4991333;28;20035;-78
2021/06/07 05:34:57;;;;;;;32.42;28.23;;;;;;;18.71;73.63;101117.59;4989165;28;20034;-78
2021/06/07 05:37:23;;;;;;;30.23;26.98;;;;;;;18.82;73.52;101125.31;4987796;28;20042;-78
2021/06/07 05:39:50;;;;;;;32.40;29.00;;;;;;;18.93;73.75;101116.97;4990341;28;20058;-79
2021/06/07 05:42:16;;;;;;;30.95;26.67;;;;;;;19.14;73.12;101116.28;4972913;28;20030;-78
2021/06/07 05:44:41;;;;;;;31.92;28.02;;;;;;;19.18;72.92;101119.75;4990826;28;20073;-78
2021/06/07 05:47:06;;;;;;;30.63;27.33;;;;;;;19.10;72.97;101119.09;4988295;28;20038;-78
2021/06/07 05:49:37;;;;;;;28.35;25.45;;;;;;;19.02;72.88;101119.31;4989046;28;20038;-78
2021/06/07 05:52:03;;;;;;;35.08;29.42;;;;;;;19.13;72.70;101125.22;4967820;28;20089;-79
2021/06/07 05:54:29;;;;;;;30.90;27.60;;;;;;;19.11;72.08;101121.72;4989313;28;20128;-78
2021/06/07 05:56:55;;;;;;;29.30;25.75;;;;;;;19.21;71.83;101122.31;4990039;28;20065;-78
2021/06/07 05:59:21;;;;;;;29.08;25.95;;;;;;;19.20;72.00;101126.78;4970460;28;20093;-78
2021/06/07 06:01:46;;;;;;;29.05;25.23;;;;;;;19.06;72.05;101129.03;4972814;28;20121;-78
2021/06/07 06:04:11;;;;;;;27.80;24.13;;;;;;;19.02;71.29;101132.69;4988869;28;20038;-78
2021/06/07 06:06:37;;;;;;;29.77;25.23;;;;;;;18.85;72.08;101124.34;4988869;28;20043;-77
2021/06/07 06:09:04;;;;;;;28.58;25.27;;;;;;;18.76;71.82;101130.88;4992181;28;20030;-78
2021/06/07 06:11:29;;;;;;;27.27;24.38;;;;;;;18.80;71.97;101121.81;4993605;28;20113;-79
2021/06/07 06:13:54;;;;;;;28.92;25.70;;;;;;;18.86;71.89;101118.06;4998608;28;20072;-78
2021/06/07 06:16:21;;;;;;;28.80;25.15;;;;;;;19.01;71.83;101125.63;4994216;28;20050;-78
2021/06/07 06:18:47;;;;;;;27.95;25.05;;;;;;;18.98;71.49;101125.72;5000412;28;20069;-78
2021/06/07 06:21:13;;;;;;;27.30;24.40;;;;;;;19.04;71.52;101130.88;4990985;28;20035;-78
2021/06/07 06:23:39;;;;;;;28.38;25.38;;;;;;;19.02;71.10;101135.38;4993840;28;20035;-78
2021/06/07 06:26:05;;;;;;;30.83;26.98;;;;;;;19.01;71.81;101139.84;4987707;28;20491;-78
2021/06/07 06:28:31;;;;;;;28.30;25.23;;;;;;;19.15;71.70;101128.75;4989583;28;20101;-78
2021/06/07 06:30:57;;;;;;;29.40;23.83;;;;;;;19.29;71.33;101130.09;4988841;28;20499;-78
2021/06/07 06:33:22;;;;;;;27.60;24.50;;;;;;;19.36;70.17;101123.59;4988182;28;20071;-78
2021/06/07 06:35:48;;;;;;;26.13;23.40;;;;;;;19.45;70.23;101124.16;4971898;28;20034;-78
2021/06/07 06:38:13;;;;;;;27.65;23.48;;;;;;;19.56;69.62;101133.63;4971150;28;20498;-78
2021/06/07 06:40:40;;;;;;;29.02;23.88;;;;;;;19.64;68.91;101129.75;4989346;28;20108;-78
2021/06/07 06:43:06;;;;;;;27.73;24.83;;;;;;;19.69;68.00;101133.19;4970068;28;20041;-78
2021/06/07 06:45:33;;;;;;;26.00;23.23;;;;;;;19.59;67.87;101134.41;4988095;28;20034;-78
2021/06/07 06:47:59;;;;;;;28.52;23.88;;;;;;;19.67;67.63;101137.72;4989578;28;20483;-78
2021/06/07 06:50:33;;;;;;;24.75;22.10;;;;;;;19.62;67.78;101138.78;4971178;28;20030;-78
2021/06/07 06:53:00;;;;;;;25.85;21.70;;;;;;;19.68;67.80;101136.81;4968976;28;20065;-78
2021/06/07 06:55:26;;;;;;;26.67;22.45;;;;;;;19.76;67.32;101130.31;4987731;28;20505;-78
2021/06/07 06:57:51;;;;;;;35.47;31.05;;;;;;;19.87;67.37;101134.34;4955778;28;20038;-78
2021/06/07 07:00:17;;;;;;;24.15;21.65;;;;;;;20.00;66.34;101142.84;4985833;28;20046;-78
2021/06/07 07:02:42;;;;;;;29.83;25.58;;;;;;;20.10;66.82;101138.91;4971191;28;20113;-78
2021/06/07 07:05:09;;;;;;;27.30;24.40;;;;;;;20.10;66.83;101140.72;4986708;28;20414;-78
2021/06/07 07:07:34;;;;;;;24.95;22.35;;;;;;;20.24;67.15;101137.53;4985708;28;20089;-78
2021/06/07 07:09:59;;;;;;;29.50;23.80;;;;;;;20.26;66.00;101147.25;4986882;28;20038;-78
2021/06/07 07:12:26;;;;;;;28.10;24.05;;;;;;;20.21;66.61;101145.69;4987119;28;20129;-78
2021/06/07 07:14:53;;;;;;;28.42;24.73;;;;;;;20.30;65.73;101148.00;4985668;28;20045;-78
2021/06/07 07:17:19;;;;;;;32.47;28.98;;;;;;;20.32;66.50;101143.47;4987478;28;20182;-78
2021/06/07 07:19:46;;;;;;;30.38;27.08;;;;;;;20.50;65.86;101144.59;4987956;28;20099;-78
2021/06/07 07:22:12;;;;;;;29.08;25.90;;;;;;;20.55;66.48;101150.69;4968003;28;20046;-78
2021/06/07 07:24:39;;;;;;;28.02;24.92;;;;;;;20.61;65.68;101144.22;4987035;28;20038;-78
2021/06/07 07:27:05;;;;;;;25.13;22.45;;;;;;;20.61;64.34;101149.59;4988523;28;20045;-78
2021/06/07 07:29:32;;;;;;;31.45;27.98;;;;;;;20.68;64.38;101154.66;4986435;28;20046;-78
2021/06/07 07:31:58;;;;;;;25.92;23.25;;;;;;;20.69;63.53;101150.16;4970944;28;20491;-78
2021/06/07 07:34:23;;;;;;;27.33;24.48;;;;;;;20.79;63.73;101146.19;4986081;28;20034;-78
2021/06/07 07:36:48;;;;;;;26.13;23.38;;;;;;;20.89;62.51;101152.09;4954303;28;20109;-78
2021/06/07 07:39:14;;;;;;;28.48;24.70;;;;;;;20.88;62.34;101144.97;4970252;28;20077;-78
2021/06/07 07:41:39;;;;;;;27.88;24.60;;;;;;;21.04;62.51;101147.91;4989163;28;20026;-78
2021/06/07 07:44:05;;;;;;;25.48;22.60;;;;;;;21.03;62.25;101152.41;4981801;28;20398;-78
2021/06/07 07:46:30;;;;;;;22.45;20.05;;;;;;;21.06;61.59;101143.34;4969260;28;20038;-78
2021/06/07 07:48:56;;;;;;;28.45;22.60;;;;;;;21.18;60.53;101151.78;4987424;28;20053;-78
2021/06/07 07:51:21;;;;;;;25.88;22.13;;;;;;;21.09;60.08;101148.59;4967745;28;20077;-78
2021/06/07 07:53:46;;;;;;;23.38;20.13;;;;;;;21.10;60.47;101139.63;4952249;28;20045;-78
2021/06/07 07:56:12;;;;;;;24.55;22.10;;;;;;;21.28;61.43;101151.44;4987893;28;20078;-78
2021/06/07 07:58:37;;;;;;;27.30;24.30;;;;;;;21.20;61.44;101147.25;4965530;28;20035;-78
2021/06/07 08:01:03;;;;;;;26.77;23.20;;;;;;;21.38;61.89;101167.13;4969534;28;20045;-78
2021/06/07 08:03:28;;;;;;;26.60;23.90;;;;;;;21.31;60.69;101152.16;4948610;29;20035;-78
2021/06/07 08:05:54;;;;;;;28.83;25.85;;;;;;;21.35;61.62;101148.44;4952461;28;20039;-78
2021/06/07 08:08:19;;;;;;;29.17;26.13;;;;;;;21.43;61.03;101143.66;4953120;28;20121;-78
2021/06/07 08:10:45;;;;;;;26.52;21.92;;;;;;;21.63;60.46;101144.63;4986920;28;20528;-78
2021/06/07 08:13:10;;;;;;;23.58;21.20;;;;;;;21.63;59.50;101156.22;4967671;28;20076;-78
2021/06/07 08:15:35;;;;;;;24.02;21.55;;;;;;;21.61;58.96;101142.00;4986166;28;20045;-78
2021/06/07 08:18:02;;;;;;;21.52;19.08;;;;;;;21.68;58.67;101142.59;4986819;28;20101;-78
2021/06/07 08:20:28;;;;;;;22.98;20.58;;;;;;;21.86;58.22;101140.94;4985248;28;20062;-78
2021/06/07 08:22:55;;;;;;;23.25;20.95;;;;;;;21.88;58.43;101145.31;4969269;28;20034;-78
2021/06/07 08:25:23;;;;;;;22.00;19.80;;;;;;;21.86;58.32;101141.81;4989437;28;20053;-78
2021/06/07 08:27:49;;;;;;;23.60;21.30;;;;;;;21.91;58.21;101141.63;4987378;28;20046;-78
2021/06/07 08:30:16;;;;;;;21.63;19.45;;;;;;;22.02;57.70;101146.53;4990442;28;20051;-78
2021/06/07 08:32:42;;;;;;;20.20;17.35;;;;;;;22.10;55.94;101147.06;4988346;28;20031;-78
2021/06/07 08:35:09;;;;;;;19.27;17.38;;;;;;;22.15;55.07;101138.78;4986443;28;20543;-78
2021/06/07 08:37:35;;;;;;;20.92;18.52;;;;;;;22.28;56.03;101138.19;4973270;28;20030;-78
2021/06/07 08:40:07;;;;;;;19.92;17.80;;;;;;;22.48;55.05;101131.06;4986689;28;20041;-78
2021/06/07 08:42:33;;;;;;;28.20;25.40;;;;;;;22.55;54.86;101137.88;4988625;28;20042;-78
2021/06/07 08:44:58;;;;;;;19.75;17.85;;;;;;;22.76;53.66;101144.94;4970615;28;20073;-78
2021/06/07 08:47:24;;;;;;;18.73;16.85;;;;;;;22.79;54.05;101127.75;4973200;28;20046;-79
2021/06/07 08:49:50;;;;;;;18.35;16.55;;;;;;;22.86;53.26;101140.00;4989803;28;20034;-78
2021/06/07 08:52:18;;;;;;;32.50;26.10;;;;;;;22.94;53.55;101136.94;4988359;28;20038;-78
2021/06/07 08:54:44;;;;;;;20.55;17.38;;;;;;;22.96;53.06;101135.94;4972140;28;20046;-78
2021/06/07 08:57:09;;;;;;;18.80;16.90;;;;;;;22.90;52.22;101140.72;4990873;28;20034;-79
2021/06/07 08:59:35;;;;;;;18.00;16.00;;;;;;;22.84;52.26;101132.94;4988475;28;20058;-78
2021/06/07 09:02:02;;;;;;;16.90;15.10;;;;;;;22.99;53.19;101134.94;4989812;28;20042;-79
2021/06/07 09:04:27;;;;;;;17.42;14.95;;;;;;;23.13;52.14;101137.84;4950860;29;20098;-77
2021/06/07 09:06:53;;;;;;;17.17;14.50;;;;;;;23.29;51.07;101134.34;4972716;28;20490;-78
2021/06/07 09:09:22;;;;;;;20.75;18.42;;;;;;;23.51;50.79;101132.34;4972168;28;20034;-78
2021/06/07 09:11:56;;;;;;;15.05;13.55;;;;;;;23.70;49.87;101136.78;4987256;28;20122;-78
2021/06/07 09:14:26;;;;;;;17.67;15.88;;;;;;;23.72;50.17;101140.31;4988480;28;20078;-78
2021/06/07 09:16:52;;;;;;;18.25;15.73;;;;;;;23.79;50.09;101131.84;4950274;28;20078;-78
2021/06/07 09:19:29;;;;;;;17.15;14.77;;;;;;;23.57;49.88;101134.72;4971348;28;20065;-78
2021/06/07 09:22:15;;;;;;;16.90;15.00;;;;;;;23.55;50.97;101136.66;4951850;28;20039;-78
2021/06/07 09:25:00;;;;;;;15.63;13.77;;;;;;;23.77;50.04;101133.75;4950220;28;20043;-78
2021/06/07 09:27:26;;;;;;;17.48;15.68;;;;;;;23.98;49.86;101122.78;4983595;28;20055;-78
2021/06/07 09:29:51;;;;;;;26.40;23.67;;;;;;;24.20;49.02;101125.22;4987630;28;20035;-79
2021/06/07 09:32:17;;;;;;;22.45;20.10;;;;;;;24.34;48.42;101116.38;4990126;28;20034;-78
2021/06/07 09:34:43;;;;;;;17.77;15.90;;;;;;;24.51;47.74;101123.59;4939516;28;20099;-78
2021/06/07 09:37:12;;;;;;;25.73;23.05;;;;;;;24.55;47.83;101108.94;4969969;28;20046;-77
2021/06/07 09:39:40;;;;;;;13.55;12.15;;;;;;;24.57;47.64;101117.84;4971052;28;20035;-78
2021/06/07 09:42:09;;;;;;;13.32;11.68;;;;;;;24.71;47.07;101108.03;4988086;28;20093;-78
2021/06/07 09:44:39;;;;;;;12.93;11.45;;;;;;;24.84;48.72;101116.31;4966285;28;20090;-78
2021/06/07 09:47:31;;;;;;;14.90;11.07;;;;;;;24.89;45.85;101106.13;4969783;28;20122;-78
2021/06/07 09:50:03;;;;;;;15.77;14.10;;;;;;;25.03;46.39;101109.84;4971606;28;20038;-78
2021/06/07 09:52:53;;;;;;;15.45;12.25;;;;;;;24.84;46.16;101108.22;4952202;28;20043;-78
2021/06/07 09:55:23;;;;;;;13.65;12.25;;;;;;;25.00;45.83;101110.91;4985265;28;20081;-78
2021/06/07 09:57:56;;;;;;;15.43;11.95;;;;;;;25.06;45.93;101106.97;4986782;28;20039;-78
2021/06/07 10:00:41;;;;;;;13.02;11.63;;;;;;;25.09;44.96;101109.50;4963618;28;20556;-78
2021/06/07 10:03:20;;;;;;;14.43;11.73;;;;;;;25.22;45.00;101099.75;4963035;28;20023;-78
2021/06/07 10:05:46;;;;;;;18.33;16.35;;;;;;;25.40;45.01;101099.63;4985345;28;20043;-78
2021/06/07 10:08:12;;;;;;;12.98;11.00;;;;;;;25.39;43.43;101105.97;4970127;28;20065;-77
2021/06/07 10:10:38;;;;;;;10.63;9.60;;;;;;;25.44;43.71;101095.78;4971910;28;20069;-78
2021/06/07 10:13:09;;;;;;;12.35;11.05;;;;;;;25.64;43.49;101100.00;4986165;28;20130;-78
2021/06/07 10:15:38;;;;;;;15.82;10.02;;;;;;;25.67;43.75;101099.81;4988978;28;20073;-76
2021/06/07 10:18:06;;;;;;;11.02;9.77;;;;;;;25.80;42.85;101096.25;4967401;28;20034;-77
2021/06/07 10:20:49;;;;;;;12.55;10.38;;;;;;;25.88;42.50;101095.81;4988171;28;20039;-78
2021/06/07 10:23:28;;;;;;;11.65;10.45;;;;;;;25.99;42.08;101096.06;4960833;28;20035;-78
2021/06/07 10:25:57;;;;;;;12.25;10.35;;;;;;;26.04;41.59;101100.28;4979795;28;20042;-77
2021/06/07 10:28:29;;;;;;;9.60;8.60;;;;;;;26.27;40.74;101093.47;4979122;28;20042;-77
2021/06/07 10:30:56;;;;;;;12.68;11.40;;;;;;;26.35;39.67;101088.44;4988303;28;20034;-77
2021/06/07 10:33:34;;;;;;;8.73;7.63;;;;;;;26.50;38.97;101090.16;4984365;28;20410;-77
2021/06/07 10:36:22;;;;;;;8.10;7.30;;;;;;;26.63;37.87;101085.72;4984585;28;20097;-76
2021/06/07 10:38:52;;;;;;;8.35;7.47;;;;;;;26.48;38.02;101081.25;4990251;28;20522;-76
2021/06/07 10:41:24;;;;;;;13.70;8.07;;;;;;;26.32;38.20;101077.81;4954756;28;20038;-76
2021/06/07 10:43:52;;;;;;;8.05;7.18;;;;;;;26.50;38.73;101089.28;4965778;28;20085;-76
2021/06/07 10:46:25;;;;;;;7.63;6.93;;;;;;;26.53;37.83;101089.13;4986509;28;20398;-77
2021/06/07 10:48:52;;;;;;;9.43;7.53;;;;;;;26.67;37.14;101068.31;4987711;28;20049;-77
2021/06/07 10:51:24;;;;;;;8.98;6.45;;;;;;;26.72;35.99;101077.97;4985481;28;20478;-77
2021/06/07 10:53:53;;;;;;;7.13;6.43;;;;;;;26.78;35.72;101077.59;4987437;28;20049;-77
2021/06/07 10:56:19;;;;;;;11.15;8.18;;;;;;;26.84;36.13;101074.47;4989133;28;20041;-77
2021/06/07 10:58:53;;;;;;;8.45;7.03;;;;;;;27.00;35.15;101071.59;4988065;28;20042;-78
2021/06/07 11:01:19;;;;;;;9.30;6.95;;;;;;;27.01;35.18;101067.91;4999494;28;20093;-81
2021/06/07 11:03:58;;;;;;;9.10;6.30;;;;;;;26.99;33.91;101064.47;4995724;28;20088;-81
2021/06/07 11:06:24;;;;;;;7.90;6.40;;;;;;;27.07;34.80;101057.56;4997323;28;20054;-81
2021/06/07 11:09:19;;;;;;;9.88;8.27;;;;;;;27.23;35.07;101059.28;5000737;28;20042;-81
2021/06/07 11:11:48;;;;;;;7.72;5.70;;;;;;;27.44;33.76;101049.66;4979067;28;20050;-81